createdAt,value
2018-12-18T00:00:20.285Z,99505.14
2018-12-18T00:02:48.005Z,99502.78
2018-12-18T00:05:20.980Z,99496.42
2018-12-18T00:07:48.429Z,99494.89
2018-12-18T00:10:15.901Z,99497.92
2018-12-18T00:12:43.351Z,99487.48
2018-12-18T00:15:10.823Z,99492.50
2018-12-18T00:17:38.272Z,99498.13
2018-12-18T00:20:06.001Z,99499.48
2018-12-18T00:22:33.492Z,99504.84
2018-12-18T00:25:00.961Z,99508.92
2018-12-18T00:27:28.416Z,99513.54
2018-12-18T00:29:55.861Z,99513.05
2018-12-18T00:32:23.324Z,99506.43
2018-12-18T00:34:50.765Z,99516.81
2018-12-18T00:37:18.302Z,99517.44
2018-12-18T00:39:46.003Z,99520.89
2018-12-18T00:42:13.488Z,99516.08
2018-12-18T00:44:40.948Z,99509.72
2018-12-18T00:47:08.398Z,99512.71
2018-12-18T00:49:35.845Z,99504.01
2018-12-18T00:52:03.305Z,99513.77
2018-12-18T00:54:30.787Z,99519.23
2018-12-18T00:56:58.246Z,99517.28
2018-12-18T00:59:25.706Z,99520.98
2018-12-18T01:01:58.778Z,99528.00
2018-12-18T01:04:26.234Z,99522.63
2018-12-18T01:06:54.048Z,99525.49
2018-12-18T01:09:21.703Z,99527.30
2018-12-18T01:11:49.886Z,99492.48
2018-12-18T01:14:17.339Z,99527.56
2018-12-18T01:16:44.801Z,99528.49
2018-12-18T01:19:12.244Z,99526.92
2018-12-18T01:21:39.700Z,99530.58
2018-12-18T01:24:07.176Z,99529.52
2018-12-18T01:26:34.621Z,99528.66
2018-12-18T01:29:02.092Z,99525.67
2018-12-18T01:31:29.545Z,99523.73
2018-12-18T01:33:59.388Z,99521.78
2018-12-18T01:36:26.481Z,99529.47
2018-12-18T01:38:53.942Z,99522.05
2018-12-18T01:41:21.382Z,99517.39
2018-12-18T01:43:48.849Z,99517.20
2018-12-18T01:46:16.296Z,99517.69
2018-12-18T01:48:43.750Z,99511.42
2018-12-18T01:51:11.193Z,99522.27
2018-12-18T01:53:38.658Z,99520.09
2018-12-18T01:56:06.114Z,99509.69
2018-12-18T01:58:33.574Z,99514.77
2018-12-18T02:01:01.027Z,99518.48
2018-12-18T02:03:28.502Z,99506.08
2018-12-18T02:05:56.338Z,99500.44
2018-12-18T02:08:23.798Z,99504.26
2018-12-18T02:10:51.247Z,99502.42
2018-12-18T02:13:18.702Z,99498.58
2018-12-18T02:15:46.173Z,99493.56
2018-12-18T02:18:13.626Z,99500.57
2018-12-18T02:20:41.094Z,99498.39
2018-12-18T02:23:08.546Z,99489.56
2018-12-18T02:25:36.005Z,99499.22
2018-12-18T02:28:03.457Z,99498.41
2018-12-18T02:30:31.298Z,99497.45
2018-12-18T02:32:58.751Z,99497.74
2018-12-18T02:35:26.229Z,99501.12
2018-12-18T02:37:53.785Z,99504.40
2018-12-18T02:43:51.351Z,99498.52
2018-12-18T02:46:18.905Z,99498.45
2018-12-18T02:48:46.359Z,99495.17
2018-12-18T02:51:13.823Z,99491.20
2018-12-18T02:53:41.279Z,99498.33
2018-12-18T02:56:08.743Z,99494.91
2018-12-18T02:58:36.196Z,99497.22
2018-12-18T03:01:03.665Z,99488.78
2018-12-18T03:03:31.154Z,99485.33
2018-12-18T03:05:58.610Z,99493.52
2018-12-18T03:08:26.061Z,99481.13
2018-12-18T03:10:53.526Z,99480.20
2018-12-18T03:13:20.982Z,99484.83
2018-12-18T03:15:48.449Z,99488.44
2018-12-18T03:18:15.909Z,99486.89
2018-12-18T03:20:43.362Z,99493.52
2018-12-18T03:23:10.826Z,99479.63
2018-12-18T03:25:38.283Z,99484.64
2018-12-18T03:28:05.817Z,99482.25
2018-12-18T03:30:33.264Z,99480.14
2018-12-18T03:33:00.811Z,99484.89
2018-12-18T03:35:28.342Z,99482.03
2018-12-18T03:37:55.813Z,99477.76
2018-12-18T03:40:23.257Z,99478.31
2018-12-18T03:42:50.717Z,99478.84
2018-12-18T03:45:18.165Z,99479.34
2018-12-18T03:47:45.629Z,99474.16
2018-12-18T03:50:13.081Z,99477.70
2018-12-18T03:52:40.546Z,99465.03
2018-12-18T03:55:08.067Z,99482.91
2018-12-18T03:57:35.543Z,99481.16
2018-12-18T04:00:04.079Z,99483.60
2018-12-18T04:02:31.538Z,99481.75
2018-12-18T04:04:58.987Z,99481.67
2018-12-18T04:07:26.438Z,99479.69
2018-12-18T04:09:53.901Z,99484.77
2018-12-18T04:12:21.635Z,99480.19
2018-12-18T04:14:49.279Z,99471.34
2018-12-18T04:17:16.745Z,99472.09
2018-12-18T04:19:44.226Z,99474.41
2018-12-18T04:22:12.548Z,99460.48
2018-12-18T04:24:40.069Z,99460.41
2018-12-18T04:27:07.517Z,99470.36
2018-12-18T04:29:34.978Z,99476.48
2018-12-18T04:32:02.420Z,99479.12
2018-12-18T04:34:29.915Z,99481.91
2018-12-18T04:36:57.440Z,99487.16
2018-12-18T04:39:24.909Z,99486.88
2018-12-18T04:41:52.356Z,99482.55
2018-12-18T04:44:19.831Z,99472.77
2018-12-18T04:46:49.286Z,99477.16
2018-12-18T04:49:16.853Z,99466.06
2018-12-18T04:51:44.306Z,99475.89
2018-12-18T04:54:11.820Z,99471.12
2018-12-18T04:56:39.256Z,99471.70
2018-12-18T04:59:06.701Z,99480.56
2018-12-18T05:01:34.164Z,99472.27
2018-12-18T05:04:01.621Z,99469.81
2018-12-18T05:06:29.407Z,99471.19
2018-12-18T05:08:56.850Z,99469.94
2018-12-18T05:11:24.313Z,99469.56
2018-12-18T05:13:51.766Z,99470.28
2018-12-18T05:16:19.228Z,99467.00
2018-12-18T05:18:46.679Z,99467.94
2018-12-18T05:21:14.158Z,99473.80
2018-12-18T05:23:41.620Z,99470.42
2018-12-18T05:26:09.082Z,99474.77
2018-12-18T05:28:36.539Z,99484.05
2018-12-18T05:31:04.001Z,99487.67
2018-12-18T05:33:31.464Z,99491.06
2018-12-18T05:35:58.934Z,99484.89
2018-12-18T05:38:26.378Z,99488.05
2018-12-18T05:40:53.922Z,99476.78
2018-12-18T05:43:21.449Z,99481.91
2018-12-18T05:45:48.907Z,99481.22
2018-12-18T05:48:16.370Z,99491.83
2018-12-18T05:50:43.820Z,99484.66
2018-12-18T05:53:11.286Z,99484.11
2018-12-18T05:55:38.761Z,99474.97
2018-12-18T05:58:06.241Z,99471.34
2018-12-18T06:00:33.687Z,99479.51
2018-12-18T06:03:01.159Z,99479.44
2018-12-18T06:05:28.594Z,99476.02
2018-12-18T06:07:56.181Z,99483.67
2018-12-18T06:10:24.630Z,99489.97
2018-12-18T06:12:52.117Z,99482.91
2018-12-18T06:15:19.554Z,99489.16
2018-12-18T06:17:47.266Z,99487.02
2018-12-18T06:20:14.694Z,99491.08
2018-12-18T06:22:42.484Z,99499.70
2018-12-18T06:25:10.119Z,99507.13
2018-12-18T06:27:37.722Z,99500.56
2018-12-18T06:30:07.106Z,99498.48
2018-12-18T06:32:34.709Z,99487.52
2018-12-18T06:35:02.140Z,99493.61
2018-12-18T06:37:30.023Z,99493.72
2018-12-18T06:39:57.459Z,99493.67
2018-12-18T06:42:24.901Z,99497.30
2018-12-18T06:44:52.578Z,99500.48
2018-12-18T06:47:20.025Z,99501.47
2018-12-18T06:49:47.621Z,99494.09
2018-12-18T06:52:15.058Z,99491.45
2018-12-18T06:54:42.619Z,99489.91
2018-12-18T06:57:10.056Z,99490.27
2018-12-18T06:59:38.089Z,99485.16
2018-12-18T07:02:05.506Z,99476.16
2018-12-18T07:04:33.300Z,99480.98
2018-12-18T07:07:00.732Z,99484.73
2018-12-18T07:09:29.114Z,99492.88
2018-12-18T07:11:56.552Z,99503.23
2018-12-18T07:14:24.116Z,99499.63
2018-12-18T07:16:51.547Z,99492.63
2018-12-18T07:19:19.291Z,99495.59
2018-12-18T07:21:46.728Z,99497.02
2018-12-18T07:24:14.436Z,99506.22
2018-12-18T07:26:41.920Z,99505.74
2018-12-18T07:29:09.348Z,99505.69
2018-12-18T07:31:37.197Z,99513.35
2018-12-18T07:34:04.626Z,99519.39
2018-12-18T07:36:32.171Z,99520.28
2018-12-18T07:38:59.674Z,99517.73
2018-12-18T07:41:27.200Z,99524.38
2018-12-18T07:43:54.633Z,99522.87
2018-12-18T07:46:22.572Z,99522.83
2018-12-18T07:48:50.025Z,99523.63
2018-12-18T07:51:17.799Z,99521.75
2018-12-18T07:53:45.231Z,99528.24
2018-12-18T07:56:13.029Z,99516.69
2018-12-18T07:58:40.458Z,99513.94
2018-12-18T08:01:08.015Z,99514.28
2018-12-18T08:03:35.486Z,99511.75
2018-12-18T08:06:02.956Z,99503.31
2018-12-18T08:08:30.417Z,99511.33
2018-12-18T08:10:57.885Z,99511.70
2018-12-18T08:13:25.342Z,99516.27
2018-12-18T08:15:52.788Z,99517.80
2018-12-18T08:18:20.246Z,99515.77
2018-12-18T08:20:47.694Z,99511.28
2018-12-18T08:23:15.171Z,99511.30
2018-12-18T08:25:42.614Z,99513.21
2018-12-18T08:28:10.079Z,99519.34
2018-12-18T08:30:37.529Z,99522.67
2018-12-18T08:33:04.997Z,99517.78
2018-12-18T08:35:36.465Z,99521.30
2018-12-18T08:38:01.943Z,99527.34
2018-12-18T08:40:29.387Z,99522.91
2018-12-18T08:42:56.859Z,99523.05
2018-12-18T08:45:24.313Z,99529.59
2018-12-18T08:47:51.808Z,99536.92
2018-12-18T08:50:19.277Z,99535.52
2018-12-18T08:52:46.745Z,99541.56
2018-12-18T08:55:14.191Z,99539.23
2018-12-18T08:57:42.162Z,99543.30
2018-12-18T09:00:09.708Z,99545.90
2018-12-18T09:02:37.170Z,99543.75
2018-12-18T09:05:05.518Z,99550.17
2018-12-18T09:07:32.969Z,99543.58
2018-12-18T09:10:00.432Z,99553.63
2018-12-18T09:12:27.873Z,99541.50
2018-12-18T09:14:57.781Z,99534.98
2018-12-18T09:17:30.969Z,99534.64
2018-12-18T09:19:58.464Z,99539.06
2018-12-18T09:22:25.905Z,99528.72
2018-12-18T09:24:53.366Z,99532.52
2018-12-18T09:27:20.814Z,99529.70
2018-12-18T09:29:48.270Z,99531.02
2018-12-18T09:32:15.722Z,99518.78
2018-12-18T09:34:43.189Z,99524.00
2018-12-18T09:37:10.657Z,99528.83
2018-12-18T09:39:42.943Z,99521.68
2018-12-18T09:42:16.035Z,99512.45
2018-12-18T09:44:43.501Z,99514.78
2018-12-18T09:47:11.166Z,99515.02
2018-12-18T09:49:38.778Z,99514.64
2018-12-18T09:52:06.277Z,99511.43
2018-12-18T09:54:33.790Z,99515.59
2018-12-18T09:57:01.221Z,99506.99
2018-12-18T09:59:29.063Z,99503.14
2018-12-18T10:01:56.834Z,99508.29
2018-12-18T10:04:24.292Z,99509.55
2018-12-18T10:06:51.757Z,99499.93
2018-12-18T10:09:19.201Z,99480.04
2018-12-18T10:11:46.671Z,99492.08
2018-12-18T10:14:14.126Z,99490.36
2018-12-18T10:16:41.595Z,99492.97
2018-12-18T10:19:09.045Z,99489.52
2018-12-18T10:21:36.510Z,99484.22
2018-12-18T10:24:04.125Z,99477.27
2018-12-18T10:26:31.606Z,99477.63
2018-12-18T10:28:59.053Z,99469.53
2018-12-18T10:31:26.590Z,99464.45
2018-12-18T10:33:54.033Z,99466.63
2018-12-18T10:36:21.470Z,99458.22
2018-12-18T10:38:48.935Z,99457.78
2018-12-18T10:41:16.394Z,99457.50
2018-12-18T10:43:43.946Z,99460.52
2018-12-18T10:46:11.659Z,99447.33
2018-12-18T10:48:39.451Z,99446.00
2018-12-18T10:51:06.913Z,99438.31
2018-12-18T10:53:34.426Z,99437.66
2018-12-18T10:56:01.872Z,99437.73
2018-12-18T10:58:29.432Z,99430.27
2018-12-18T11:01:02.424Z,99425.50
2018-12-18T11:03:30.107Z,99427.73
2018-12-18T11:05:57.543Z,99420.38
2018-12-18T11:08:25.086Z,99410.98
2018-12-18T11:10:52.527Z,99412.59
2018-12-18T11:13:20.240Z,99408.45
2018-12-18T11:15:47.686Z,99404.70
2018-12-18T11:18:15.782Z,99394.62
2018-12-18T11:20:43.215Z,99391.36
2018-12-18T11:23:10.673Z,99384.55
2018-12-18T11:25:38.266Z,99386.45
2018-12-18T11:28:05.695Z,99392.52
2018-12-18T11:30:33.389Z,99387.64
2018-12-18T11:33:00.832Z,99379.47
2018-12-18T11:35:28.611Z,99373.68
2018-12-18T11:37:56.511Z,99372.94
2018-12-18T11:40:24.142Z,99366.22
2018-12-18T11:42:51.586Z,99360.10
2018-12-18T11:45:19.374Z,99360.12
2018-12-18T11:47:46.812Z,99354.30
2018-12-18T11:50:14.594Z,99350.77
2018-12-18T11:52:42.052Z,99342.59
2018-12-18T11:55:09.638Z,99346.10
2018-12-18T11:57:37.080Z,99345.20
2018-12-18T12:00:08.765Z,99339.29
2018-12-18T12:02:40.021Z,99337.62
2018-12-18T12:05:06.228Z,99335.55
2018-12-18T12:07:33.668Z,99342.84
2018-12-18T12:10:01.343Z,99336.94
2018-12-18T12:12:28.786Z,99333.47
2018-12-18T12:14:56.886Z,99328.34
2018-12-18T12:17:24.694Z,99335.15
2018-12-18T12:19:52.143Z,99332.88
2018-12-18T12:22:19.878Z,99334.51
2018-12-18T12:24:47.322Z,99326.94
2018-12-18T12:27:20.965Z,99325.12
2018-12-18T12:29:48.388Z,99326.03
2018-12-18T12:32:16.178Z,99326.62
2018-12-18T12:34:43.625Z,99329.86
2018-12-18T12:37:11.391Z,99320.03
2018-12-18T12:39:38.834Z,99322.86
2018-12-18T12:42:06.629Z,99316.48
2018-12-18T12:44:34.081Z,99323.05
2018-12-18T12:47:01.862Z,99324.02
2018-12-18T12:49:34.797Z,99324.73
2018-12-18T12:52:02.513Z,99319.91
2018-12-18T12:54:29.933Z,99318.53
2018-12-18T12:56:57.830Z,99327.06
2018-12-18T12:59:25.465Z,99321.75
2018-12-18T13:01:52.930Z,99321.40
2018-12-18T13:04:20.389Z,99326.20
2018-12-18T13:06:47.837Z,99313.08
2018-12-18T13:09:15.297Z,99309.98
2018-12-18T13:11:42.838Z,99300.83
2018-12-18T13:14:10.305Z,99298.30
2018-12-18T13:16:37.749Z,99288.08
2018-12-18T13:19:05.205Z,99291.38
2018-12-18T13:21:32.654Z,99287.50
2018-12-18T13:24:00.122Z,99285.08
2018-12-18T13:26:27.574Z,99281.67
2018-12-18T13:28:55.033Z,99276.45
2018-12-18T13:31:22.486Z,99268.53
2018-12-18T13:33:49.965Z,99252.02
2018-12-18T13:36:17.427Z,99241.38
2018-12-18T13:38:44.938Z,99234.79
2018-12-18T13:41:12.518Z,99228.70
2018-12-18T13:43:39.999Z,99223.84
2018-12-18T13:46:07.564Z,99218.63
2018-12-18T13:48:36.431Z,99220.72
2018-12-18T13:51:04.157Z,99221.45
2018-12-18T13:53:31.611Z,99215.00
2018-12-18T13:55:59.062Z,99213.17
2018-12-18T13:58:26.493Z,99211.23
2018-12-18T14:00:53.968Z,99201.11
2018-12-18T14:03:21.415Z,99207.84
2018-12-18T14:05:48.885Z,99202.16
2018-12-18T14:08:16.322Z,99192.77
2018-12-18T14:10:43.779Z,99193.59
2018-12-18T14:13:11.221Z,99190.09
2018-12-18T14:15:38.683Z,99189.89
2018-12-18T14:18:06.110Z,99189.73
2018-12-18T14:20:33.943Z,99198.11
2018-12-18T14:23:01.377Z,99199.59
2018-12-18T14:25:29.003Z,99197.53
2018-12-18T14:27:56.448Z,99190.08
2018-12-18T14:30:24.073Z,99202.05
2018-12-18T14:32:51.505Z,99189.55
2018-12-18T14:35:18.977Z,99197.69
2018-12-18T14:37:46.422Z,99201.52
2018-12-18T14:40:13.893Z,99198.06
2018-12-18T14:42:41.347Z,99192.47
2018-12-18T14:45:08.816Z,99193.78
2018-12-18T14:47:36.271Z,99199.41
2018-12-18T14:50:04.876Z,99195.65
2018-12-18T14:52:32.336Z,99195.09
2018-12-18T14:54:59.783Z,99192.30
2018-12-18T14:57:27.262Z,99186.39
2018-12-18T14:59:54.709Z,99186.35
2018-12-18T15:02:22.176Z,99181.66
2018-12-18T15:04:49.630Z,99186.40
2018-12-18T15:07:17.094Z,99181.28
2018-12-18T15:09:44.541Z,99173.59
2018-12-18T15:12:12.005Z,99171.81
2018-12-18T15:14:39.442Z,99165.80
2018-12-18T15:17:06.917Z,99163.78
2018-12-18T15:19:34.357Z,99169.59
2018-12-18T15:22:01.831Z,99166.70
2018-12-18T15:24:29.277Z,99167.31
2018-12-18T15:26:56.741Z,99162.98
2018-12-18T15:29:24.193Z,99172.55
2018-12-18T15:31:51.751Z,99172.78
2018-12-18T15:34:19.208Z,99169.94
2018-12-18T15:36:46.745Z,99161.27
2018-12-18T15:39:14.217Z,99160.13
2018-12-18T15:41:41.666Z,99158.36
2018-12-18T15:44:09.157Z,99161.79
2018-12-18T15:46:36.599Z,99147.38
2018-12-18T15:49:04.081Z,99151.70
2018-12-18T15:51:31.538Z,99154.39
2018-12-18T15:53:58.999Z,99155.16
2018-12-18T15:56:26.514Z,99154.45
2018-12-18T15:58:53.991Z,99147.41
2018-12-18T16:01:21.439Z,99144.75
2018-12-18T16:03:48.899Z,99145.20
2018-12-18T16:06:16.353Z,99146.73
2018-12-18T16:08:43.817Z,99130.97
2018-12-18T16:11:11.260Z,99123.17
2018-12-18T16:13:38.730Z,99114.20
2018-12-18T16:16:06.466Z,99115.27
2018-12-18T16:18:33.932Z,99120.95
2018-12-18T16:21:01.390Z,99084.03
2018-12-18T16:23:28.859Z,99120.53
2018-12-18T16:25:57.831Z,99125.72
2018-12-18T16:28:25.312Z,99117.30
2018-12-18T16:30:52.770Z,99118.27
2018-12-18T16:33:20.222Z,99117.11
2018-12-18T16:35:47.711Z,99108.57
2018-12-18T16:38:15.159Z,99107.73
2018-12-18T16:40:42.621Z,99111.80
2018-12-18T16:43:10.062Z,99115.04
2018-12-18T16:45:37.538Z,99114.77
2018-12-18T16:48:04.990Z,99109.70
2018-12-18T16:50:32.457Z,99106.11
2018-12-18T16:52:59.934Z,99104.26
2018-12-18T16:55:27.391Z,99094.83
2018-12-18T16:57:54.842Z,99097.31
2018-12-18T17:00:22.310Z,99099.39
2018-12-18T17:02:49.768Z,99100.36
2018-12-18T17:05:17.237Z,99100.99
2018-12-18T17:07:44.696Z,99099.86
2018-12-18T17:10:12.263Z,99097.26
2018-12-18T17:12:41.730Z,99096.70
2018-12-18T17:15:09.200Z,99097.36
2018-12-18T17:17:36.660Z,99093.35
2018-12-18T17:20:05.122Z,99095.29
2018-12-18T17:22:32.598Z,99095.73
2018-12-18T17:25:00.059Z,99085.02
2018-12-18T17:27:27.530Z,99094.37
2018-12-18T17:29:54.986Z,99105.39
2018-12-18T17:32:22.456Z,99104.44
2018-12-18T17:34:49.930Z,99094.30
2018-12-18T17:37:17.387Z,99086.30
2018-12-18T17:39:44.863Z,99084.98
2018-12-18T17:42:12.395Z,99086.44
2018-12-18T17:44:41.118Z,99094.28
2018-12-18T17:47:08.942Z,99084.69
2018-12-18T17:49:36.405Z,99080.28
2018-12-18T17:52:03.947Z,99078.28
2018-12-18T17:54:32.260Z,99084.15
2018-12-18T17:56:59.726Z,99088.81
2018-12-18T17:59:27.177Z,99091.69
2018-12-18T18:01:54.622Z,99083.41
2018-12-18T18:04:22.088Z,99082.23
2018-12-18T18:06:49.545Z,99077.72
2018-12-18T18:09:17.335Z,99085.70
2018-12-18T18:11:44.789Z,99086.27
2018-12-18T18:14:12.272Z,99085.33
2018-12-18T18:16:39.718Z,99086.22
2018-12-18T18:19:07.186Z,99082.26
2018-12-18T18:21:34.634Z,99081.91
2018-12-18T18:24:02.103Z,99079.22
2018-12-18T18:26:29.552Z,99083.70
2018-12-18T18:28:57.038Z,99084.47
2018-12-18T18:31:24.502Z,99080.00
2018-12-18T18:33:51.967Z,99080.05
2018-12-18T18:36:19.419Z,99080.57
2018-12-18T18:38:46.899Z,99082.30
2018-12-18T18:41:14.346Z,99080.25
2018-12-18T18:43:41.811Z,99073.09
2018-12-18T18:46:09.249Z,99071.23
2018-12-18T18:48:36.968Z,99074.02
2018-12-18T18:51:04.439Z,99067.95
2018-12-18T18:53:31.886Z,99073.12
2018-12-18T18:55:59.355Z,99067.61
2018-12-18T18:58:26.810Z,99057.80
2018-12-18T19:00:54.284Z,99061.33
2018-12-18T19:03:21.754Z,99057.19
2018-12-18T19:05:49.253Z,99066.66
2018-12-18T19:08:16.702Z,99065.60
2018-12-18T19:10:44.187Z,99064.53
2018-12-18T19:13:11.660Z,99068.25
2018-12-18T19:15:39.114Z,99070.84
2018-12-18T19:18:06.590Z,99064.06
2018-12-18T19:20:34.062Z,99058.73
2018-12-18T19:23:01.522Z,99060.86
2018-12-18T19:25:29.018Z,99053.73
2018-12-18T19:27:56.619Z,99053.12
2018-12-18T19:30:24.125Z,99044.36
2018-12-18T19:32:51.662Z,99040.78
2018-12-18T19:35:19.130Z,99037.19
2018-12-18T19:37:46.694Z,99042.09
2018-12-18T19:40:14.158Z,99048.45
2018-12-18T19:42:41.609Z,99048.78
2018-12-18T19:45:09.050Z,99037.66
2018-12-18T19:47:36.541Z,99037.64
2018-12-18T19:50:04.642Z,99033.63
2018-12-18T19:52:32.132Z,99041.90
2018-12-18T19:54:59.581Z,99037.49
2018-12-18T19:57:27.041Z,99033.08
2018-12-18T19:59:54.483Z,99029.34
2018-12-18T20:02:21.947Z,99020.27
2018-12-18T20:04:49.426Z,99021.38
2018-12-18T20:07:16.893Z,99020.32
2018-12-18T20:09:44.373Z,99018.03
2018-12-18T20:12:11.869Z,99018.91
2018-12-18T20:14:39.729Z,99012.80
2018-12-18T20:17:07.683Z,99014.71
2018-12-18T20:19:35.542Z,99012.84
2018-12-18T20:22:02.993Z,99008.28
2018-12-18T20:24:30.515Z,99009.90
2018-12-18T20:26:58.037Z,99003.11
2018-12-18T20:29:25.501Z,98998.38
2018-12-18T20:31:52.960Z,99000.41
2018-12-18T20:34:20.486Z,98999.91
2018-12-18T20:36:47.929Z,98999.18
2018-12-18T20:39:15.421Z,98993.77
2018-12-18T20:41:42.870Z,98992.13
2018-12-18T20:44:10.325Z,98998.00
2018-12-18T20:46:37.773Z,98991.30
2018-12-18T20:49:05.241Z,98999.25
2018-12-18T20:51:32.681Z,98992.26
2018-12-18T20:54:00.149Z,98987.41
2018-12-18T20:56:27.615Z,98993.54
2018-12-18T20:58:55.238Z,98985.36
2018-12-18T21:01:22.707Z,98988.80
2018-12-18T21:03:50.234Z,98992.22
2018-12-18T21:06:17.686Z,98991.82
2018-12-18T21:08:45.132Z,98990.75
2018-12-18T21:11:12.677Z,98983.27
2018-12-18T21:13:40.139Z,98991.72
2018-12-18T21:16:07.608Z,98983.27
2018-12-18T21:18:35.181Z,98981.61
2018-12-18T21:21:03.543Z,98974.59
2018-12-18T21:23:31.001Z,98965.27
2018-12-18T21:25:58.470Z,98969.65
2018-12-18T21:28:25.927Z,98968.83
2018-12-18T21:30:53.402Z,98968.53
2018-12-18T21:33:21.000Z,98968.22
2018-12-18T21:35:48.557Z,98972.43
2018-12-18T21:38:16.034Z,98963.23
2018-12-18T21:40:43.489Z,98961.12
2018-12-18T21:43:10.958Z,98966.36
2018-12-18T21:45:38.409Z,98963.61
2018-12-18T21:48:05.887Z,98964.77
2018-12-18T21:50:33.329Z,98967.41
2018-12-18T21:53:00.793Z,98956.83
2018-12-18T21:55:28.247Z,98960.20
2018-12-18T21:57:55.714Z,98961.80
2018-12-18T22:00:23.166Z,98954.08
2018-12-18T22:02:51.487Z,98954.20
2018-12-18T22:05:19.314Z,98947.47
2018-12-18T22:07:46.777Z,98940.77
2018-12-18T22:10:14.237Z,98937.17
2018-12-18T22:12:41.706Z,98931.64
2018-12-18T22:15:09.155Z,98923.36
2018-12-18T22:17:36.619Z,98920.34
2018-12-18T22:20:05.388Z,98905.94
2018-12-18T22:22:32.849Z,98899.62
2018-12-18T22:25:00.322Z,98900.05
2018-12-18T22:27:27.770Z,98892.09
2018-12-18T22:29:55.244Z,98887.97
2018-12-18T22:32:22.699Z,98881.27
2018-12-18T22:34:50.165Z,98868.80
2018-12-18T22:37:17.607Z,98869.96
2018-12-18T22:39:45.066Z,98860.59
2018-12-18T22:42:12.513Z,98857.73
2018-12-18T22:44:39.973Z,98852.83
2018-12-18T22:47:07.417Z,98847.05
2018-12-18T22:49:34.884Z,98846.99
2018-12-18T22:52:02.341Z,98843.46
2018-12-18T22:54:29.802Z,98842.02
2018-12-18T22:56:57.254Z,98836.06
2018-12-18T22:59:24.715Z,98825.38
2018-12-18T23:01:52.166Z,98814.44
2018-12-18T23:04:19.629Z,98814.89
2018-12-18T23:06:47.078Z,98815.12
2018-12-18T23:09:15.119Z,98806.03
2018-12-18T23:11:42.594Z,98797.89
2018-12-18T23:14:10.039Z,98784.80
2018-12-18T23:16:37.505Z,98779.86
2018-12-18T23:19:04.954Z,98779.91
2018-12-18T23:21:32.540Z,98783.92
2018-12-18T23:23:59.997Z,98776.45
2018-12-18T23:26:27.464Z,98776.37
2018-12-18T23:28:54.913Z,98771.92
2018-12-18T23:31:22.385Z,98771.89
2018-12-18T23:33:49.829Z,98758.93
2018-12-18T23:36:17.302Z,98759.64
2018-12-18T23:38:44.773Z,98750.91
2018-12-18T23:41:12.437Z,98746.03
2018-12-18T23:43:39.896Z,98749.98
2018-12-18T23:46:07.357Z,98754.36
2018-12-18T23:48:39.708Z,98747.77
2018-12-18T23:51:04.492Z,98752.42
2018-12-18T23:53:31.945Z,98746.88
2018-12-18T23:55:59.410Z,98752.42
2018-12-18T23:58:26.858Z,98748.33
